Time;durP1;ratioP1;P1;durP2;ratioP2;P2;SDS_P1;SDS_P2;PMS_P1;PMS_P2;Temp;Humidity;BMP_temperature;BMP_pressure;BME280_temperature;BME280_humidity;BME280_pressure;Samples;Min_cycle;Max_cycle;Signal;HPM_P1;HPM_P2
2023/01/28 00:02:22;;;;;;;6.68;5.88;;;;;;;-0.16;100.00;102769.03;10325479;28;20107;-90
2023/01/28 00:07:23;;;;;;;7.47;6.03;;;;;;;-0.52;100.00;102709.06;10339798;28;20042;-91
2023/01/28 00:12:24;;;;;;;8.43;6.65;;;;;;;-0.17;100.00;102741.06;10324124;28;20073;-91
2023/01/28 00:17:24;;;;;;;8.27;6.40;;;;;;;0.46;100.00;102862.72;10323301;28;20137;-90
2023/01/28 00:22:25;;;;;;;10.23;6.53;;;;;;;-0.78;100.00;102663.53;10329174;28;20077;-91
2023/01/28 00:27:29;;;;;;;9.07;6.20;;;;;;;-0.18;100.00;102738.53;10310088;28;20040;-90
2023/01/28 00:32:29;;;;;;;6.90;5.65;;;;;;;-0.99;100.00;102630.25;10324535;28;20414;-90
2023/01/28 00:37:30;;;;;;;8.80;5.43;;;;;;;-0.37;100.00;102704.13;10323170;28;20053;-91
2023/01/28 00:42:31;;;;;;;7.47;5.27;;;;;;;0.07;100.00;102762.41;10347759;28;20046;-91
2023/01/28 00:47:32;;;;;;;6.88;4.65;;;;;;;0.49;100.00;102857.03;10324024;28;20042;-90
2023/01/28 00:52:32;;;;;;;5.83;4.47;;;;;;;-0.65;100.00;102656.03;10331314;28;20049;-90
2023/01/28 00:57:33;;;;;;;5.47;3.90;;;;;;;-0.27;100.00;102746.47;10348357;28;20056;-90
2023/01/28 01:02:33;;;;;;;4.70;3.90;;;;;;;-1.04;100.00;102623.41;10332758;28;20081;-90
2023/01/28 01:07:40;;;;;;;4.75;3.97;;;;;;;-0.48;100.00;102732.13;10312347;28;20023;-90
2023/01/28 01:12:40;;;;;;;5.22;4.00;;;;;;;-0.43;100.00;102719.06;10303306;28;20045;-91
2023/01/28 01:17:42;;;;;;;6.03;4.37;;;;;;;-0.39;100.00;102723.22;10346059;28;20032;-90
2023/01/28 01:22:43;;;;;;;4.60;3.80;;;;;;;-1.07;100.00;102601.22;10330421;28;20038;-91
2023/01/28 01:27:44;;;;;;;6.95;4.40;;;;;;;-0.09;100.00;102759.34;10346801;28;20133;-90
2023/01/28 01:32:45;;;;;;;5.72;4.45;;;;;;;1.12;100.00;102972.47;10331787;28;20053;-90
2023/01/28 01:37:46;;;;;;;5.53;3.72;;;;;;;0.43;100.00;102873.84;10321639;28;20061;-90
2023/01/28 01:42:46;;;;;;;8.27;3.93;;;;;;;-0.55;100.00;102679.56;10321596;28;20112;-91
2023/01/28 01:47:58;;;;;;;4.18;3.08;;;;;;;-0.25;100.00;102730.97;10332241;28;20061;-91
2023/01/28 01:53:06;;;;;;;4.57;3.33;;;;;;;-0.59;100.00;102675.44;10345844;28;20045;-90
2023/01/28 01:58:08;;;;;;;6.82;3.65;;;;;;;-0.68;100.00;102721.25;10330297;28;20117;-91
2023/01/28 02:03:09;;;;;;;3.75;2.80;;;;;;;-0.82;100.00;102703.50;10330402;28;20446;-91
2023/01/28 02:08:22;;;;;;;4.53;3.88;;;;;;;0.30;100.00;102863.25;10328644;28;20022;-90
2023/01/28 02:13:26;;;;;;;4.33;3.67;;;;;;;-0.42;100.00;102726.19;10321731;28;20040;-90
2023/01/28 02:18:26;;;;;;;5.28;4.03;;;;;;;0.79;100.00;102971.81;10298871;28;20041;-90
2023/01/28 02:23:45;;;;;;;4.78;3.80;;;;;;;0.88;100.00;102938.44;10304327;28;20554;-90
2023/01/28 02:28:54;;;;;;;5.83;3.57;;;;;;;-1.12;100.00;102657.50;10335273;28;20054;-90
2023/01/28 02:34:22;;;;;;;6.00;3.97;;;;;;;0.86;100.00;102956.72;10281092;28;20393;-91
2023/01/28 02:39:29;;;;;;;6.70;3.63;;;;;;;-1.26;100.00;102639.78;10342706;28;20034;-90
2023/01/28 02:44:29;;;;;;;5.17;3.50;;;;;;;-0.53;100.00;102746.06;10326830;28;20041;-90
2023/01/28 02:49:38;;;;;;;4.53;3.90;;;;;;;-0.95;100.00;102656.03;10319894;28;20038;-90
2023/01/28 02:54:44;;;;;;;7.60;3.58;;;;;;;0.85;100.00;102955.00;10358404;28;20045;-90
2023/01/28 03:00:13;;;;;;;9.00;3.72;;;;;;;0.19;100.00;102844.41;10359634;28;20116;-90
2023/01/28 03:05:34;;;;;;;6.07;4.63;;;;;;;-1.29;100.00;102618.44;10326343;28;20034;-90
2023/01/28 03:10:35;;;;;;;8.10;4.65;;;;;;;-1.04;100.00;102653.16;10286667;28;20501;-90
2023/01/28 03:37:15;;;;;;;7.40;4.60;;;;;;;-0.48;100.00;102718.59;10358282;28;20030;-90
2023/01/28 03:42:17;;;;;;;5.82;4.53;;;;;;;-0.85;100.00;102686.69;10341388;28;20041;-90
2023/01/28 03:47:25;;;;;;;6.20;4.50;;;;;;;-1.49;100.00;102596.75;10327272;28;20092;-90
2023/01/28 03:52:30;;;;;;;7.18;4.43;;;;;;;-0.65;100.00;102730.94;10342507;28;20038;-90
2023/01/28 03:57:31;;;;;;;6.97;4.73;;;;;;;-0.87;100.00;102711.19;10331495;28;20028;-90
2023/01/28 04:02:33;;;;;;;6.43;4.10;;;;;;;-1.28;100.00;102621.03;10350470;28;20500;-91
2023/01/28 04:07:33;;;;;;;4.63;3.20;;;;;;;0.14;100.00;102879.16;10311619;28;20031;-90
2023/01/28 04:12:36;;;;;;;4.63;3.70;;;;;;;-0.12;100.00;102819.19;10292703;28;20471;-89
2023/01/28 04:17:37;;;;;;;5.15;3.83;;;;;;;-0.75;100.00;102717.34;10296741;28;20027;-91
2023/01/28 04:22:38;;;;;;;5.37;3.70;;;;;;;-0.74;100.00;102705.56;10292429;28;20506;-90
2023/01/28 04:27:38;;;;;;;3.92;3.15;;;;;;;0.00;100.00;102861.44;10293021;28;20031;-90
2023/01/28 04:32:39;;;;;;;3.93;3.40;;;;;;;-0.22;100.00;102809.19;10293178;28;20089;-91
2023/01/28 04:37:42;;;;;;;5.18;3.92;;;;;;;-0.64;100.00;102706.44;10296167;28;20042;-90
2023/01/28 04:42:51;;;;;;;4.80;3.60;;;;;;;-1.09;100.00;102603.19;10297639;28;20035;-91
2023/01/28 04:47:51;;;;;;;7.03;3.83;;;;;;;-1.23;100.00;102620.63;10292785;28;20046;-90
2023/01/28 04:52:52;;;;;;;6.40;4.40;;;;;;;-0.15;100.00;102773.44;10292250;28;20479;-90
2023/01/28 04:57:52;;;;;;;6.88;4.53;;;;;;;-0.12;100.00;102792.13;10290204;28;20081;-91
2023/01/28 05:02:53;;;;;;;5.88;4.15;;;;;;;-0.44;100.00;102728.16;10329789;28;20531;-91
2023/01/28 05:07:54;;;;;;;5.57;3.90;;;;;;;0.06;100.00;102843.78;10330386;28;20058;-90
2023/01/28 05:12:55;;;;;;;7.33;4.43;;;;;;;-0.84;100.00;102683.00;10347472;28;20046;-90
2023/01/28 05:17:56;;;;;;;8.05;4.95;;;;;;;-0.37;100.00;102744.72;10332257;28;20489;-90
2023/01/28 05:22:56;;;;;;;6.77;4.27;;;;;;;-0.82;100.00;102691.84;10330435;28;20045;-90
2023/01/28 05:27:57;;;;;;;9.50;5.03;;;;;;;0.06;100.00;102812.13;10313926;28;20034;-90
2023/01/28 05:32:57;;;;;;;7.10;4.70;;;;;;;0.14;100.00;102835.81;10305671;28;20173;-90
2023/01/28 05:37:58;;;;;;;6.72;4.53;;;;;;;-0.86;100.00;102671.47;10297175;28;20050;-90
2023/01/28 05:42:58;;;;;;;6.78;4.97;;;;;;;0.02;100.00;102854.00;10305891;28;20053;-90
2023/01/28 05:47:59;;;;;;;6.47;4.50;;;;;;;-0.58;100.00;102693.34;10306506;28;20026;-90
2023/01/28 05:52:59;;;;;;;7.97;5.10;;;;;;;0.16;100.00;102796.75;10306012;28;20064;-91
2023/01/28 05:58:00;;;;;;;8.70;5.40;;;;;;;-0.71;100.00;102680.91;10324807;28;20057;-90
2023/01/28 06:03:00;;;;;;;9.07;5.90;;;;;;;-0.02;100.00;102814.69;10327593;28;20490;-91
2023/01/28 06:08:01;;;;;;;9.63;6.13;;;;;;;0.52;100.00;102938.06;10328365;28;20113;-89
2023/01/28 06:13:01;;;;;;;8.10;5.43;;;;;;;0.45;100.00;102871.84;10336839;28;20034;-90
2023/01/28 06:18:02;;;;;;;11.00;6.60;;;;;;;-0.87;100.00;102681.44;10343308;28;20033;-89
2023/01/28 06:23:03;;;;;;;13.23;6.47;;;;;;;-0.80;100.00;102673.63;10327703;28;20065;-90
2023/01/28 06:28:03;;;;;;;10.60;6.82;;;;;;;-0.96;100.00;102655.19;10308311;28;20034;-90
2023/01/28 06:33:05;;;;;;;10.63;7.37;;;;;;;-0.63;100.00;102713.56;10286788;28;20088;-90
2023/01/28 06:38:05;;;;;;;10.50;6.67;;;;;;;-1.11;100.00;102645.72;10287998;28;20031;-89
2023/01/28 06:43:06;;;;;;;11.73;6.57;;;;;;;-0.11;100.00;102847.97;10287839;28;20411;-90
2023/01/28 06:48:06;;;;;;;8.00;6.20;;;;;;;-0.69;100.00;102719.50;10286699;28;20061;-89
2023/01/28 06:53:07;;;;;;;10.07;6.63;;;;;;;-0.29;100.00;102805.31;10296736;28;20077;-89
2023/01/28 06:58:07;;;;;;;13.60;8.97;;;;;;;-0.88;100.00;102714.84;10324991;28;20026;-90
2023/01/28 07:03:08;;;;;;;16.70;9.15;;;;;;;-0.70;100.00;102749.41;10322902;28;20031;-90
2023/01/28 07:08:09;;;;;;;16.47;9.27;;;;;;;0.70;100.00;102968.06;10305278;28;20026;-91
2023/01/28 07:13:09;;;;;;;14.75;9.20;;;;;;;-1.19;100.00;102689.63;10300854;28;20034;-89
2023/01/28 07:18:10;;;;;;;10.70;8.17;;;;;;;-1.04;100.00;102701.81;10317470;28;20057;-89
2023/01/28 07:23:11;;;;;;;15.53;8.70;;;;;;;-1.09;100.00;102711.31;10318093;28;20034;-90
2023/01/28 07:28:11;;;;;;;11.47;8.53;;;;;;;-1.37;100.00;102665.03;10336949;28;20109;-90
2023/01/28 07:33:12;;;;;;;11.43;8.70;;;;;;;-1.42;100.00;102716.78;10325906;28;20101;-90
2023/01/28 07:38:12;;;;;;;12.80;9.60;;;;;;;-1.60;100.00;102723.72;10341885;28;20113;-90
2023/01/28 07:43:13;;;;;;;12.27;9.10;;;;;;;-1.30;100.00;102768.94;10341656;28;20057;-90
2023/01/28 07:48:14;;;;;;;18.77;11.63;;;;;;;-1.34;100.00;102815.25;10324023;28;20493;-90
2023/01/28 07:53:14;;;;;;;13.23;9.60;;;;;;;-1.74;100.00;102778.03;10325137;28;20045;-90
2023/01/28 07:58:15;;;;;;;17.00;10.97;;;;;;;-2.61;100.00;102643.88;10340687;28;20062;-89
2023/01/28 08:03:15;;;;;;;16.00;11.37;;;;;;;-1.83;100.00;102782.34;10340637;28;20052;-89
2023/01/28 08:08:16;;;;;;;16.23;11.43;;;;;;;-1.68;100.00;102782.94;10299360;28;20359;-89
2023/01/28 08:13:17;;;;;;;17.07;10.77;;;;;;;-2.25;100.00;102706.63;10299123;28;20038;-89
2023/01/28 08:18:17;;;;;;;16.93;12.40;;;;;;;-0.52;100.00;102991.28;10300020;28;20097;-89
2023/01/28 08:23:18;;;;;;;17.40;12.65;;;;;;;-2.51;100.00;102684.44;10299613;28;20085;-89
2023/01/28 08:28:18;;;;;;;17.80;12.67;;;;;;;-0.41;100.00;103034.56;10300048;28;20134;-89
2023/01/28 08:33:19;;;;;;;20.77;12.77;;;;;;;-2.10;100.00;102747.69;10320726;28;20516;-89
2023/01/28 08:38:20;;;;;;;19.63;13.13;;;;;;;-1.10;100.00;102899.66;10318326;28;20096;-89
2023/01/28 08:43:20;;;;;;;17.00;12.67;;;;;;;-1.70;100.00;102793.84;10288088;28;20117;-89
2023/01/28 08:48:21;;;;;;;18.07;12.23;;;;;;;-1.63;100.00;102815.81;10311354;28;20095;-89
2023/01/28 08:53:21;;;;;;;18.17;12.00;;;;;;;-1.70;100.00;102842.44;10346995;28;20533;-89
2023/01/28 08:58:22;;;;;;;18.83;10.63;;;;;;;-1.22;100.00;102885.34;10346973;28;20026;-90
2023/01/28 09:03:22;;;;;;;14.43;9.43;;;;;;;-1.02;100.00;102864.75;10332279;28;20053;-89
2023/01/28 09:08:23;;;;;;;14.93;9.63;;;;;;;-0.90;100.00;102845.78;10316531;28;20043;-89
2023/01/28 09:13:24;;;;;;;12.50;9.17;;;;;;;-1.21;100.00;102826.75;10290359;28;20047;-89
2023/01/28 09:18:24;;;;;;;14.07;8.93;;;;;;;-1.64;100.00;102738.47;10313062;28;20030;-89
2023/01/28 09:23:25;;;;;;;12.23;8.00;;;;;;;-0.44;100.00;102969.00;10346256;28;20041;-90
2023/01/28 09:28:25;;;;;;;11.13;7.70;;;;;;;-1.59;100.00;102722.75;10329875;28;20053;-90
2023/01/28 09:33:26;;;;;;;11.77;7.90;;;;;;;-1.46;100.00;102796.38;10330193;28;20470;-90
2023/01/28 09:38:27;;;;;;;12.37;7.60;;;;;;;-1.55;100.00;102742.25;10329103;28;20087;-89
2023/01/28 09:44:05;;;;;;;10.93;7.70;;;;;;;0.62;100.00;103046.53;10329646;28;20478;-90
2023/01/28 09:49:32;;;;;;;11.73;7.67;;;;;;;-1.34;100.00;102717.97;10345170;28;20034;-89
2023/01/28 09:54:39;;;;;;;;;;;;;;;1.11;100.00;103041.28;10329938;28;20060;-88
2023/01/28 09:59:39;;;;;;;9.95;6.57;;;;;;;0.72;100.00;102911.00;10360634;28;19947;-88
2023/01/28 10:04:39;;;;;;;9.55;6.50;;;;;;;1.97;100.00;103027.94;10316172;28;20077;-88
2023/01/28 10:09:58;;;;;;;8.77;5.10;;;;;;;1.09;100.00;102845.25;10321071;28;20062;-90
2023/01/28 10:15:21;;;;;;;10.35;5.85;;;;;;;2.54;100.00;103025.22;10294458;28;20129;-88
2023/01/28 10:20:32;;;;;;;6.60;4.50;;;;;;;1.90;100.00;102913.59;10342728;28;20084;-90
2023/01/28 10:25:33;;;;;;;8.48;5.05;;;;;;;1.68;100.00;102778.16;10336060;28;20041;-91
2023/01/28 10:30:43;;;;;;;6.30;4.85;;;;;;;2.12;100.00;102866.16;10327776;28;20041;-91
2023/01/28 10:35:44;;;;;;;7.80;5.20;;;;;;;0.70;100.00;102687.97;10327865;28;20044;-89
2023/01/28 10:40:47;;;;;;;9.03;5.40;;;;;;;1.19;100.00;102760.13;10328060;28;20028;-90
2023/01/28 10:45:55;;;;;;;7.63;5.63;;;;;;;2.62;100.00;102941.91;10319190;28;20382;-91
2023/01/28 10:51:01;;;;;;;8.65;5.70;;;;;;;1.96;100.00;102806.16;10342161;28;20396;-88
2023/01/28 10:56:03;;;;;;;9.00;6.17;;;;;;;2.76;100.00;102852.63;10327353;28;20095;-88
2023/01/28 11:01:05;;;;;;;7.85;5.15;;;;;;;2.21;100.00;102699.50;10324608;28;20037;-90
2023/01/28 11:06:05;;;;;;;12.43;6.22;;;;;;;3.05;100.00;102669.25;10309578;28;20058;-88
2023/01/28 11:11:13;;;;;;;6.97;4.82;;;;;;;2.89;100.00;102718.94;10324588;28;20069;-90
2023/01/28 11:16:18;;;;;;;7.85;5.18;;;;;;;2.08;100.00;102650.09;10324693;28;20042;-92
2023/01/28 11:21:21;;;;;;;6.82;4.85;;;;;;;2.30;100.00;102654.22;10327203;28;20046;-92
2023/01/28 11:26:24;;;;;;;7.07;4.82;;;;;;;2.68;100.00;102777.25;10326271;28;20089;-91
2023/01/28 11:31:24;;;;;;;6.95;4.68;;;;;;;2.78;100.00;102837.03;10317688;28;20026;-91
2023/01/28 11:36:29;;;;;;;9.40;4.22;;;;;;;2.45;100.00;102757.81;10330986;28;20046;-92
2023/01/28 11:41:31;;;;;;;8.13;4.80;;;;;;;3.83;100.00;102941.56;10331936;28;20041;-91
2023/01/28 11:46:31;;;;;;;7.35;4.70;;;;;;;3.96;100.00;102930.25;10339512;28;20030;-91
2023/01/28 11:51:42;;;;;;;8.50;5.07;;;;;;;2.07;100.00;102632.09;10362379;28;20026;-91
2023/01/28 11:56:48;;;;;;;6.32;4.70;;;;;;;3.70;100.00;102857.53;10342116;28;20060;-92
2023/01/28 12:01:57;;;;;;;7.75;5.25;;;;;;;2.85;100.00;102745.59;10340931;28;20113;-92
2023/01/28 12:07:19;;;;;;;7.25;4.47;;;;;;;1.84;100.00;102522.19;10306017;28;20021;-91
2023/01/28 12:12:40;;;;;;;9.70;5.00;;;;;;;3.84;100.00;102829.72;10289020;28;20035;-91
2023/01/28 12:17:47;;;;;;;8.05;4.57;;;;;;;4.32;100.00;102881.03;10305502;28;20034;-91
2023/01/28 12:22:48;;;;;;;7.88;4.50;;;;;;;4.20;100.00;102877.75;10350729;28;20033;-91
2023/01/28 12:28:29;;;;;;;7.22;5.03;;;;;;;3.83;100.00;102881.63;10351537;28;20026;-90
2023/01/28 12:33:50;;;;;;;7.03;4.22;;;;;;;3.65;100.00;102884.38;10336550;28;20037;-92
2023/01/28 12:39:12;;;;;;;6.60;4.65;;;;;;;4.18;100.00;102852.53;10347104;28;20037;-89
2023/01/28 12:44:18;;;;;;;5.93;4.00;;;;;;;4.95;100.00;102850.53;10344026;28;20109;-91
2023/01/28 12:49:24;;;;;;;5.30;3.73;;;;;;;4.30;100.00;102724.91;10311545;28;20371;-88
2023/01/28 12:54:30;;;;;;;6.22;3.83;;;;;;;5.47;100.00;102844.72;10309978;28;20053;-90
2023/01/28 12:59:32;;;;;;;7.35;4.55;;;;;;;4.60;100.00;102737.06;10367471;28;20034;-89
2023/01/28 13:04:57;;;;;;;8.50;4.03;;;;;;;5.72;100.00;102857.50;10345172;28;20097;-90
2023/01/28 13:10:16;;;;;;;7.22;4.65;;;;;;;4.71;100.00;102645.84;10345849;28;20053;-89
2023/01/28 13:15:17;;;;;;;5.18;3.78;;;;;;;5.94;100.00;102664.56;10360536;28;20160;-89
2023/01/28 13:20:47;;;;;;;5.03;4.25;;;;;;;5.66;100.00;102610.38;10315975;28;20113;-91
2023/01/28 13:25:54;;;;;;;6.82;4.18;;;;;;;6.41;100.00;102808.63;10325758;28;20151;-83
2023/01/28 13:31:13;;;;;;;8.07;4.85;;;;;;;7.46;100.00;102821.69;10313322;28;20035;-89
2023/01/28 13:36:32;;;;;;;7.55;4.68;;;;;;;7.98;100.00;102807.09;10303659;28;20070;-89
2023/01/28 13:41:38;;;;;;;6.40;3.58;;;;;;;5.29;100.00;102606.44;10335248;28;20034;-88
2023/01/28 13:46:39;;;;;;;7.05;4.65;;;;;;;5.32;100.00;102712.63;10319204;28;20495;-88
2023/01/28 13:51:39;;;;;;;8.93;5.07;;;;;;;4.69;100.00;102702.47;10287699;28;20022;-86
2023/01/28 13:56:48;;;;;;;8.43;4.70;;;;;;;4.23;100.00;102709.22;10299736;28;20033;-89
2023/01/28 14:02:07;;;;;;;8.30;4.68;;;;;;;5.13;100.00;102835.88;10326865;28;20030;-88
2023/01/28 14:07:16;;;;;;;6.57;4.60;;;;;;;4.41;100.00;102743.69;10359565;28;20033;-88
2023/01/28 14:12:28;;;;;;;9.18;5.40;;;;;;;4.57;100.00;102797.44;10359959;28;20046;-88
2023/01/28 14:17:45;;;;;;;7.25;4.90;;;;;;;4.45;100.00;102773.19;10359431;28;20061;-87
2023/01/28 14:22:46;;;;;;;11.02;6.05;;;;;;;3.77;100.00;102700.56;10325269;28;20073;-87
2023/01/28 14:27:50;;;;;;;11.45;5.30;;;;;;;3.58;100.00;102719.91;10317242;28;20035;-88
2023/01/28 14:32:51;;;;;;;10.45;6.22;;;;;;;4.42;100.00;102884.47;10286018;28;20039;-88
2023/01/28 14:37:52;;;;;;;8.68;6.13;;;;;;;2.98;100.00;102691.66;10286526;28;20031;-88
2023/01/28 14:42:53;;;;;;;9.93;5.40;;;;;;;3.46;100.00;102753.88;10285655;28;20360;-88
2023/01/28 14:48:01;;;;;;;9.23;6.38;;;;;;;3.61;100.00;102804.00;10285635;28;20042;-87
2023/01/28 14:53:07;;;;;;;8.90;6.45;;;;;;;3.99;100.00;102837.25;10301292;28;20514;-85
2023/01/28 14:58:25;;;;;;;13.68;6.85;;;;;;;3.68;100.00;102824.16;10355202;28;20029;-86
2023/01/28 15:03:26;;;;;;;8.98;6.38;;;;;;;2.73;100.00;102660.69;10314729;28;20032;-88
2023/01/28 15:08:27;;;;;;;12.23;6.38;;;;;;;3.63;100.00;102813.72;10314793;28;20045;-89
2023/01/28 15:13:29;;;;;;;11.38;6.97;;;;;;;2.82;100.00;102689.66;10320291;28;20430;-87
2023/01/28 15:18:39;;;;;;;10.40;6.32;;;;;;;2.33;100.00;102655.78;10315213;28;20032;-88
2023/01/28 15:23:41;;;;;;;11.32;6.63;;;;;;;2.71;100.00;102702.66;10304456;28;20038;-88
2023/01/28 15:28:42;;;;;;;12.65;6.88;;;;;;;3.22;100.00;102810.75;10323639;28;20030;-86
2023/01/28 15:33:42;;;;;;;11.88;7.32;;;;;;;2.73;100.00;102725.09;10299709;28;20375;-88
2023/01/28 15:38:43;;;;;;;10.85;5.65;;;;;;;3.21;100.00;102789.97;10300358;28;20026;-87
2023/01/28 15:43:45;;;;;;;11.32;6.53;;;;;;;2.35;100.00;102656.47;10301276;28;20061;-87
2023/01/28 15:48:49;;;;;;;17.42;7.38;;;;;;;2.98;100.00;102805.94;10315705;28;20117;-88
2023/01/28 15:53:51;;;;;;;12.30;6.43;;;;;;;2.70;100.00;102720.00;10300236;28;20096;-87
2023/01/28 15:58:51;;;;;;;9.30;5.68;;;;;;;3.06;100.00;102758.03;10293210;28;20034;-87
2023/01/28 16:04:03;;;;;;;12.25;6.47;;;;;;;2.81;100.00;102771.41;10290391;28;20030;-87
2023/01/28 16:09:11;;;;;;;13.63;6.32;;;;;;;2.36;100.00;102690.81;10318749;28;20026;-87
2023/01/28 16:14:33;;;;;;;12.18;6.35;;;;;;;2.14;100.00;102649.47;10342188;28;20048;-87
2023/01/28 16:19:39;;;;;;;12.85;7.25;;;;;;;2.19;100.00;102647.16;10315114;28;20052;-88
2023/01/28 16:24:47;;;;;;;12.13;7.22;;;;;;;2.30;100.00;102669.69;10312647;28;20032;-88
2023/01/28 16:29:47;;;;;;;9.52;6.53;;;;;;;2.36;100.00;102707.13;10331785;28;20037;-87
2023/01/28 16:34:48;;;;;;;10.82;6.95;;;;;;;2.49;100.00;102750.22;10323208;28;20121;-87
2023/01/28 16:39:48;;;;;;;11.82;7.72;;;;;;;1.62;100.00;102643.84;10326245;28;20097;-86
2023/01/28 16:44:49;;;;;;;14.98;7.75;;;;;;;2.61;100.00;102792.50;10323343;28;20450;-87
2023/01/28 16:49:49;;;;;;;10.15;6.78;;;;;;;1.99;100.00;102700.78;10326154;28;20113;-88
2023/01/28 16:54:50;;;;;;;14.05;7.82;;;;;;;1.59;100.00;102649.56;10339373;28;20057;-89
2023/01/28 16:59:50;;;;;;;15.10;7.53;;;;;;;2.50;100.00;102801.75;10340161;28;20057;-87
2023/01/28 17:04:51;;;;;;;13.63;7.03;;;;;;;3.10;100.00;102884.59;10321589;28;20493;-86
2023/01/28 17:09:51;;;;;;;11.93;6.50;;;;;;;1.98;100.00;102725.38;10345413;28;20026;-88
2023/01/28 17:14:52;;;;;;;11.05;6.88;;;;;;;2.75;100.00;102840.03;10345405;28;20463;-88
2023/01/28 17:19:52;;;;;;;11.95;7.25;;;;;;;2.15;100.00;102762.63;10325013;28;20068;-87
2023/01/28 17:24:53;;;;;;;13.00;6.50;;;;;;;2.10;100.00;102766.78;10326203;28;20034;-88
2023/01/28 17:29:53;;;;;;;13.88;7.65;;;;;;;2.05;100.00;102769.09;10329010;28;20482;-88
2023/01/28 17:34:54;;;;;;;10.95;6.70;;;;;;;2.60;100.00;102864.19;10329606;28;20069;-88
2023/01/28 17:39:54;;;;;;;10.57;6.63;;;;;;;2.18;100.00;102792.19;10316413;28;20112;-87
2023/01/28 17:44:55;;;;;;;12.43;6.90;;;;;;;3.15;100.00;102961.22;10333266;28;20034;-89
2023/01/28 17:49:56;;;;;;;14.35;7.38;;;;;;;2.61;100.00;102869.47;10318438;28;20037;-87
2023/01/28 17:54:57;;;;;;;15.40;6.68;;;;;;;3.09;100.00;102940.06;10327724;28;20038;-84
2023/01/28 17:59:57;;;;;;;10.25;6.68;;;;;;;1.96;100.00;102798.03;10336569;28;20052;-86
2023/01/28 18:04:58;;;;;;;10.98;6.47;;;;;;;2.00;100.00;102799.44;10343249;28;20065;-88
2023/01/28 18:09:58;;;;;;;11.88;6.63;;;;;;;1.69;100.00;102731.81;10343010;28;20037;-88
2023/01/28 18:14:59;;;;;;;14.68;7.28;;;;;;;2.76;100.00;102921.50;10316343;28;20077;-89
2023/01/28 18:19:59;;;;;;;10.75;5.88;;;;;;;1.66;100.00;102725.84;10315097;28;20048;-87
2023/01/28 18:25:00;;;;;;;16.10;7.80;;;;;;;1.78;100.00;102733.66;10316134;28;20054;-89
2023/01/28 18:30:00;;;;;;;12.13;6.82;;;;;;;2.24;100.00;102839.66;10310623;28;20030;-88
2023/01/28 18:35:01;;;;;;;11.55;6.65;;;;;;;2.90;100.00;102944.63;10316156;28;20060;-87
2023/01/28 18:40:04;;;;;;;13.07;6.72;;;;;;;1.08;100.00;102665.38;10317627;28;24969;-86
2023/01/28 18:45:05;;;;;;;13.07;7.80;;;;;;;2.29;100.00;102877.25;10331267;28;20034;-87
2023/01/28 18:50:06;;;;;;;14.95;8.30;;;;;;;1.57;100.00;102790.91;10307721;28;20088;-86
2023/01/28 18:55:07;;;;;;;10.93;6.95;;;;;;;1.60;100.00;102776.16;10322340;28;20050;-86
2023/01/28 19:00:10;;;;;;;13.95;6.85;;;;;;;2.18;100.00;102881.88;10325787;28;20483;-87
2023/01/28 19:05:11;;;;;;;15.30;7.07;;;;;;;2.35;100.00;102885.66;10322576;28;20037;-86
2023/01/28 19:10:11;;;;;;;12.93;7.47;;;;;;;1.91;100.00;102789.47;10305889;28;20524;-86
2023/01/28 19:15:12;;;;;;;18.75;8.45;;;;;;;2.25;100.00;102873.97;10318267;28;20046;-85
2023/01/28 19:20:13;;;;;;;13.88;7.75;;;;;;;2.86;100.00;102918.72;10336079;28;20424;-87
2023/01/28 19:25:14;;;;;;;14.60;8.35;;;;;;;1.76;100.00;102765.53;10311666;28;20419;-88
2023/01/28 19:30:15;;;;;;;11.48;6.60;;;;;;;2.14;100.00;102828.81;10321209;28;20049;-86
2023/01/28 19:35:19;;;;;;;13.07;6.57;;;;;;;2.12;100.00;102835.41;10325377;28;20534;-87
2023/01/28 19:40:20;;;;;;;11.27;6.85;;;;;;;1.64;100.00;102745.00;10325339;28;20030;-86
2023/01/28 19:45:21;;;;;;;10.38;7.20;;;;;;;2.06;100.00;102825.16;10340086;28;20112;-86
2023/01/28 19:50:21;;;;;;;9.52;6.50;;;;;;;1.68;100.00;102770.84;10321481;28;20442;-86
2023/01/28 19:55:22;;;;;;;10.48;7.38;;;;;;;1.73;100.00;102743.25;10339603;28;20048;-87
2023/01/28 20:00:22;;;;;;;11.93;7.00;;;;;;;1.59;100.00;102741.84;10315622;28;20026;-87
2023/01/28 20:05:23;;;;;;;11.10;7.70;;;;;;;1.38;100.00;102691.38;10317575;28;20371;-88
2023/01/28 20:10:23;;;;;;;13.98;6.88;;;;;;;2.07;100.00;102854.00;10318940;28;20109;-88
2023/01/28 20:15:24;;;;;;;14.23;6.95;;;;;;;2.28;100.00;102816.59;10319544;28;20125;-87
2023/01/28 20:20:24;;;;;;;11.20;6.95;;;;;;;1.77;100.00;102769.94;10304603;28;20093;-88
2023/01/28 20:25:25;;;;;;;11.75;7.07;;;;;;;1.73;100.00;102757.66;10307573;28;20037;-88
2023/01/28 20:30:26;;;;;;;15.65;8.02;;;;;;;2.02;100.00;102770.25;10311533;28;20041;-88
2023/01/28 20:35:26;;;;;;;15.25;9.18;;;;;;;1.69;100.00;102720.09;10327163;28;20042;-88
2023/01/28 20:40:27;;;;;;;23.40;10.60;;;;;;;1.59;100.00;102741.84;10334454;28;20669;-88
2023/01/28 20:45:30;;;;;;;20.70;9.57;;;;;;;1.93;100.00;102814.63;10305534;28;20052;-88
2023/01/28 20:50:30;;;;;;;18.63;10.00;;;;;;;1.06;100.00;102650.25;10333558;28;20033;-88
2023/01/28 20:55:31;;;;;;;16.92;8.90;;;;;;;1.86;100.00;102773.63;10317320;28;20050;-88
2023/01/28 21:00:32;;;;;;;19.50;9.98;;;;;;;2.00;100.00;102805.72;10318063;28;20030;-89
2023/01/28 21:05:32;;;;;;;19.58;10.30;;;;;;;1.74;100.00;102751.25;10320593;28;20174;-88
2023/01/28 21:10:34;;;;;;;18.70;11.07;;;;;;;1.76;100.00;102764.69;10324529;28;20486;-88
2023/01/28 21:15:34;;;;;;;18.70;11.38;;;;;;;2.78;100.00;102930.34;10315641;28;20041;-88
2023/01/28 21:20:35;;;;;;;21.70;10.98;;;;;;;2.77;100.00;102896.03;10325818;28;20394;-88
2023/01/28 21:25:35;;;;;;;24.13;10.82;;;;;;;1.93;100.00;102771.16;10320393;28;20510;-87
2023/01/28 21:30:49;;;;;;;19.33;10.43;;;;;;;2.67;100.00;102878.03;10555874;27;20422;-75
2023/01/28 21:35:49;;;;;;;19.85;10.70;;;;;;;2.76;100.00;102883.41;10517907;28;20126;-75
2023/01/28 21:40:50;;;;;;;21.42;9.35;;;;;;;2.82;100.00;102890.09;10553878;28;20032;-75
2023/01/28 21:45:54;;;;;;;17.30;8.77;;;;;;;2.85;100.00;102891.66;10533806;28;20099;-73
2023/01/28 21:56:13;;;;;;;23.80;9.27;;;;;;;2.81;100.00;102885.66;10525847;28;20059;-73
2023/01/28 22:01:14;;;;;;;19.83;9.75;;;;;;;2.79;100.00;102874.09;10482665;28;20047;-74
2023/01/28 22:06:14;;;;;;;19.60;9.73;;;;;;;2.83;100.00;102868.19;10492303;28;20044;-73
2023/01/28 22:11:15;;;;;;;16.60;9.68;;;;;;;2.71;100.00;102841.34;10493090;28;20500;-74
2023/01/28 22:16:16;;;;;;;14.50;8.70;;;;;;;2.81;100.00;102850.31;10517443;28;20484;-73
2023/01/28 22:21:16;;;;;;;18.27;8.95;;;;;;;2.80;100.00;102835.00;10493590;28;20392;-74
2023/01/28 22:26:17;;;;;;;17.30;9.27;;;;;;;2.77;100.00;102835.28;10517497;28;20541;-74
2023/01/28 22:31:17;;;;;;;18.33;8.27;;;;;;;2.74;100.00;102822.03;10517762;28;20119;-73
2023/01/28 22:36:18;;;;;;;21.98;8.73;;;;;;;2.67;100.00;102812.75;10516576;28;20067;-74
2023/01/28 22:41:21;;;;;;;15.88;7.75;;;;;;;2.45;100.00;102787.72;10510917;28;20059;-74
2023/01/28 22:46:22;;;;;;;15.82;7.20;;;;;;;2.39;100.00;102804.66;10472245;28;20587;-73
2023/01/28 22:51:28;;;;;;;16.35;8.15;;;;;;;2.20;100.00;102811.06;10505294;28;20052;-73
2023/01/28 22:56:28;;;;;;;12.63;6.75;;;;;;;2.08;100.00;102810.41;10471894;28;20366;-73
2023/01/28 23:01:29;;;;;;;13.90;7.35;;;;;;;2.01;100.00;102817.47;10504673;28;20029;-73
2023/01/28 23:06:30;;;;;;;12.70;7.82;;;;;;;1.89;100.00;102802.34;10463569;28;20032;-73
2023/01/28 23:11:30;;;;;;;15.17;7.40;;;;;;;1.84;100.00;102786.50;10438455;28;20043;-73
2023/01/28 23:27:09;;;;;;;11.07;7.65;;;;;;;1.97;100.00;102838.63;10473515;28;20041;-73
2023/01/28 23:32:09;;;;;;;8.27;6.57;;;;;;;2.01;100.00;102812.03;10471187;28;20045;-73
2023/01/28 23:37:11;;;;;;;13.40;7.20;;;;;;;2.11;100.00;102809.25;10470846;28;20035;-73